sensor_id;sensor_type;location;lat;lon;timestamp;P1;durP1;ratioP1;P2;durP2;ratioP2
15120;SDS011;7661;48.904;9.414;2022-08-19T00:01:42;15.83;;;12.00;;
15120;SDS011;7661;48.904;9.414;2022-08-19T00:04:12;14.70;;;12.00;;
15120;SDS011;7661;48.904;9.414;2022-08-19T00:06:41;15.97;;;12.80;;
15120;SDS011;7661;48.904;9.414;2022-08-19T00:09:10;14.80;;;11.80;;
15120;SDS011;7661;48.904;9.414;2022-08-19T00:11:41;21.60;;;13.50;;
15120;SDS011;7661;48.904;9.414;2022-08-19T00:14:09;30.53;;;13.27;;
15120;SDS011;7661;48.904;9.414;2022-08-19T00:16:37;16.43;;;13.70;;
15120;SDS011;7661;48.904;9.414;2022-08-19T00:19:06;16.03;;;12.73;;
15120;SDS011;7661;48.904;9.414;2022-08-19T00:21:33;14.80;;;12.03;;
15120;SDS011;7661;48.904;9.414;2022-08-19T00:24:03;18.43;;;13.40;;
15120;SDS011;7661;48.904;9.414;2022-08-19T00:26:31;13.90;;;12.03;;
15120;SDS011;7661;48.904;9.414;2022-08-19T00:28:59;15.43;;;12.27;;
15120;SDS011;7661;48.904;9.414;2022-08-19T00:31:26;17.57;;;12.60;;
15120;SDS011;7661;48.904;9.414;2022-08-19T00:33:53;18.80;;;12.53;;
15120;SDS011;7661;48.904;9.414;2022-08-19T00:36:20;18.90;;;12.60;;
15120;SDS011;7661;48.904;9.414;2022-08-19T00:38:47;16.00;;;11.90;;
15120;SDS011;7661;48.904;9.414;2022-08-19T00:41:17;17.03;;;13.33;;
15120;SDS011;7661;48.904;9.414;2022-08-19T00:43:55;18.63;;;12.70;;
15120;SDS011;7661;48.904;9.414;2022-08-19T00:46:25;16.63;;;12.70;;
15120;SDS011;7661;48.904;9.414;2022-08-19T00:48:52;22.60;;;13.60;;
15120;SDS011;7661;48.904;9.414;2022-08-19T00:51:19;14.60;;;12.67;;
15120;SDS011;7661;48.904;9.414;2022-08-19T00:53:47;17.40;;;13.33;;
15120;SDS011;7661;48.904;9.414;2022-08-19T00:56:14;17.83;;;14.40;;
15120;SDS011;7661;48.904;9.414;2022-08-19T00:58:42;15.80;;;12.47;;
15120;SDS011;7661;48.904;9.414;2022-08-19T01:01:09;16.87;;;13.57;;
15120;SDS011;7661;48.904;9.414;2022-08-19T01:03:38;16.30;;;12.63;;
15120;SDS011;7661;48.904;9.414;2022-08-19T01:06:05;16.30;;;12.90;;
15120;SDS011;7661;48.904;9.414;2022-08-19T01:08:33;17.20;;;13.07;;
15120;SDS011;7661;48.904;9.414;2022-08-19T01:11:00;16.10;;;12.70;;
15120;SDS011;7661;48.904;9.414;2022-08-19T01:13:29;22.23;;;13.60;;
15120;SDS011;7661;48.904;9.414;2022-08-19T01:16:00;17.90;;;15.00;;
15120;SDS011;7661;48.904;9.414;2022-08-19T01:18:29;18.17;;;14.30;;
15120;SDS011;7661;48.904;9.414;2022-08-19T01:21:00;20.00;;;14.43;;
15120;SDS011;7661;48.904;9.414;2022-08-19T01:23:32;26.23;;;13.90;;
15120;SDS011;7661;48.904;9.414;2022-08-19T01:26:09;18.90;;;14.80;;
15120;SDS011;7661;48.904;9.414;2022-08-19T01:28:39;20.83;;;14.20;;
15120;SDS011;7661;48.904;9.414;2022-08-19T01:31:08;22.20;;;15.70;;
15120;SDS011;7661;48.904;9.414;2022-08-19T01:33:39;19.73;;;14.63;;
15120;SDS011;7661;48.904;9.414;2022-08-19T01:36:07;20.13;;;15.97;;
15120;SDS011;7661;48.904;9.414;2022-08-19T01:38:37;19.70;;;15.07;;
15120;SDS011;7661;48.904;9.414;2022-08-19T01:41:06;26.93;;;14.10;;
15120;SDS011;7661;48.904;9.414;2022-08-19T01:43:33;18.70;;;14.83;;
15120;SDS011;7661;48.904;9.414;2022-08-19T01:46:00;21.00;;;16.00;;
15120;SDS011;7661;48.904;9.414;2022-08-19T01:48:32;18.27;;;14.70;;
15120;SDS011;7661;48.904;9.414;2022-08-19T01:51:00;19.77;;;14.43;;
15120;SDS011;7661;48.904;9.414;2022-08-19T01:53:27;19.43;;;15.27;;
15120;SDS011;7661;48.904;9.414;2022-08-19T01:55:55;18.27;;;14.27;;
15120;SDS011;7661;48.904;9.414;2022-08-19T01:58:22;18.80;;;14.30;;
15120;SDS011;7661;48.904;9.414;2022-08-19T02:00:54;19.93;;;15.43;;
15120;SDS011;7661;48.904;9.414;2022-08-19T02:03:21;21.00;;;15.40;;
15120;SDS011;7661;48.904;9.414;2022-08-19T02:05:53;22.80;;;15.73;;
15120;SDS011;7661;48.904;9.414;2022-08-19T02:08:20;21.03;;;15.90;;
15120;SDS011;7661;48.904;9.414;2022-08-19T02:10:47;21.77;;;15.43;;
15120;SDS011;7661;48.904;9.414;2022-08-19T02:13:16;27.60;;;17.40;;
15120;SDS011;7661;48.904;9.414;2022-08-19T02:15:43;22.50;;;15.57;;
15120;SDS011;7661;48.904;9.414;2022-08-19T02:18:10;21.20;;;15.70;;
15120;SDS011;7661;48.904;9.414;2022-08-19T02:20:37;23.50;;;16.60;;
15120;SDS011;7661;48.904;9.414;2022-08-19T02:23:05;26.63;;;15.87;;
15120;SDS011;7661;48.904;9.414;2022-08-19T02:25:33;28.40;;;17.70;;
15120;SDS011;7661;48.904;9.414;2022-08-19T02:28:00;27.10;;;14.93;;
15120;SDS011;7661;48.904;9.414;2022-08-19T02:30:28;21.87;;;15.40;;
15120;SDS011;7661;48.904;9.414;2022-08-19T02:32:56;22.83;;;17.67;;
15120;SDS011;7661;48.904;9.414;2022-08-19T02:35:23;23.60;;;17.37;;
15120;SDS011;7661;48.904;9.414;2022-08-19T02:37:50;23.27;;;16.47;;
15120;SDS011;7661;48.904;9.414;2022-08-19T02:40:35;21.90;;;17.13;;
15120;SDS011;7661;48.904;9.414;2022-08-19T02:43:02;21.40;;;17.20;;
15120;SDS011;7661;48.904;9.414;2022-08-19T02:45:33;20.97;;;15.23;;
15120;SDS011;7661;48.904;9.414;2022-08-19T02:48:00;24.60;;;16.57;;
15120;SDS011;7661;48.904;9.414;2022-08-19T02:50:27;20.27;;;15.83;;
15120;SDS011;7661;48.904;9.414;2022-08-19T02:52:54;26.93;;;17.83;;
15120;SDS011;7661;48.904;9.414;2022-08-19T02:55:21;26.17;;;18.43;;
15120;SDS011;7661;48.904;9.414;2022-08-19T02:57:48;24.90;;;18.10;;
15120;SDS011;7661;48.904;9.414;2022-08-19T03:00:15;24.10;;;17.07;;
15120;SDS011;7661;48.904;9.414;2022-08-19T03:02:44;24.70;;;16.63;;
15120;SDS011;7661;48.904;9.414;2022-08-19T03:05:11;25.50;;;16.17;;
15120;SDS011;7661;48.904;9.414;2022-08-19T03:07:38;28.47;;;17.90;;
15120;SDS011;7661;48.904;9.414;2022-08-19T03:10:06;23.93;;;16.40;;
15120;SDS011;7661;48.904;9.414;2022-08-19T03:12:34;25.97;;;18.57;;
15120;SDS011;7661;48.904;9.414;2022-08-19T03:15:03;26.33;;;16.80;;
15120;SDS011;7661;48.904;9.414;2022-08-19T03:17:31;24.63;;;17.67;;
15120;SDS011;7661;48.904;9.414;2022-08-19T03:19:59;26.43;;;17.73;;
15120;SDS011;7661;48.904;9.414;2022-08-19T03:22:26;29.07;;;18.00;;
15120;SDS011;7661;48.904;9.414;2022-08-19T03:24:53;25.07;;;18.53;;
15120;SDS011;7661;48.904;9.414;2022-08-19T03:27:20;28.10;;;19.00;;
15120;SDS011;7661;48.904;9.414;2022-08-19T03:29:47;24.63;;;18.10;;
15120;SDS011;7661;48.904;9.414;2022-08-19T03:32:14;25.13;;;18.67;;
15120;SDS011;7661;48.904;9.414;2022-08-19T03:34:41;25.70;;;18.77;;
15120;SDS011;7661;48.904;9.414;2022-08-19T03:37:10;28.97;;;18.40;;
15120;SDS011;7661;48.904;9.414;2022-08-19T03:39:38;28.57;;;18.53;;
15120;SDS011;7661;48.904;9.414;2022-08-19T03:42:07;28.00;;;18.97;;
15120;SDS011;7661;48.904;9.414;2022-08-19T03:44:34;26.43;;;18.47;;
15120;SDS011;7661;48.904;9.414;2022-08-19T03:47:02;31.23;;;18.70;;
15120;SDS011;7661;48.904;9.414;2022-08-19T03:49:30;28.93;;;20.03;;
15120;SDS011;7661;48.904;9.414;2022-08-19T03:52:00;28.77;;;19.17;;
15120;SDS011;7661;48.904;9.414;2022-08-19T03:54:31;27.57;;;19.70;;
15120;SDS011;7661;48.904;9.414;2022-08-19T03:56:58;27.93;;;19.53;;
15120;SDS011;7661;48.904;9.414;2022-08-19T03:59:26;31.07;;;20.40;;
15120;SDS011;7661;48.904;9.414;2022-08-19T04:01:54;28.93;;;19.07;;
15120;SDS011;7661;48.904;9.414;2022-08-19T04:04:22;29.17;;;19.80;;
15120;SDS011;7661;48.904;9.414;2022-08-19T04:06:50;32.07;;;21.10;;
15120;SDS011;7661;48.904;9.414;2022-08-19T04:09:18;32.23;;;20.30;;
15120;SDS011;7661;48.904;9.414;2022-08-19T04:11:48;34.87;;;20.00;;
15120;SDS011;7661;48.904;9.414;2022-08-19T04:14:18;34.10;;;20.80;;
15120;SDS011;7661;48.904;9.414;2022-08-19T04:16:46;29.73;;;20.47;;
15120;SDS011;7661;48.904;9.414;2022-08-19T04:19:14;32.40;;;21.23;;
15120;SDS011;7661;48.904;9.414;2022-08-19T04:21:43;29.13;;;20.27;;
15120;SDS011;7661;48.904;9.414;2022-08-19T04:24:11;31.50;;;20.50;;
15120;SDS011;7661;48.904;9.414;2022-08-19T04:26:38;30.77;;;20.50;;
15120;SDS011;7661;48.904;9.414;2022-08-19T04:29:07;32.67;;;21.77;;
15120;SDS011;7661;48.904;9.414;2022-08-19T04:31:37;31.83;;;21.77;;
15120;SDS011;7661;48.904;9.414;2022-08-19T04:34:05;33.77;;;21.50;;
15120;SDS011;7661;48.904;9.414;2022-08-19T04:36:35;34.30;;;22.60;;
15120;SDS011;7661;48.904;9.414;2022-08-19T04:39:05;38.63;;;21.90;;
15120;SDS011;7661;48.904;9.414;2022-08-19T04:41:33;33.20;;;21.77;;
15120;SDS011;7661;48.904;9.414;2022-08-19T04:44:19;34.93;;;22.07;;
15120;SDS011;7661;48.904;9.414;2022-08-19T04:46:46;38.87;;;22.87;;
15120;SDS011;7661;48.904;9.414;2022-08-19T04:49:15;39.17;;;23.03;;
15120;SDS011;7661;48.904;9.414;2022-08-19T04:51:43;33.93;;;22.00;;
15120;SDS011;7661;48.904;9.414;2022-08-19T04:54:12;31.70;;;20.73;;
15120;SDS011;7661;48.904;9.414;2022-08-19T04:56:39;31.60;;;21.57;;
15120;SDS011;7661;48.904;9.414;2022-08-19T04:59:06;29.93;;;20.77;;
15120;SDS011;7661;48.904;9.414;2022-08-19T05:01:35;32.27;;;21.33;;
15120;SDS011;7661;48.904;9.414;2022-08-19T05:04:02;40.00;;;23.20;;
15120;SDS011;7661;48.904;9.414;2022-08-19T05:06:31;38.70;;;20.83;;
15120;SDS011;7661;48.904;9.414;2022-08-19T05:08:59;40.80;;;21.77;;
15120;SDS011;7661;48.904;9.414;2022-08-19T05:11:27;32.77;;;22.57;;
15120;SDS011;7661;48.904;9.414;2022-08-19T05:13:56;31.57;;;20.60;;
15120;SDS011;7661;48.904;9.414;2022-08-19T05:16:24;37.17;;;23.10;;
15120;SDS011;7661;48.904;9.414;2022-08-19T05:18:53;34.80;;;22.57;;
15120;SDS011;7661;48.904;9.414;2022-08-19T05:21:39;32.13;;;22.57;;
15120;SDS011;7661;48.904;9.414;2022-08-19T05:24:24;36.13;;;21.50;;
15120;SDS011;7661;48.904;9.414;2022-08-19T05:26:51;34.43;;;20.87;;
15120;SDS011;7661;48.904;9.414;2022-08-19T05:29:21;37.07;;;21.30;;
15120;SDS011;7661;48.904;9.414;2022-08-19T05:31:50;36.13;;;20.87;;
15120;SDS011;7661;48.904;9.414;2022-08-19T05:34:20;37.07;;;22.60;;
15120;SDS011;7661;48.904;9.414;2022-08-19T05:36:49;34.90;;;23.17;;
15120;SDS011;7661;48.904;9.414;2022-08-19T05:39:20;30.97;;;20.83;;
15120;SDS011;7661;48.904;9.414;2022-08-19T05:41:48;29.83;;;20.83;;
15120;SDS011;7661;48.904;9.414;2022-08-19T05:44:17;34.37;;;22.47;;
15120;SDS011;7661;48.904;9.414;2022-08-19T05:46:45;39.33;;;24.00;;
15120;SDS011;7661;48.904;9.414;2022-08-19T05:49:12;36.30;;;23.10;;
15120;SDS011;7661;48.904;9.414;2022-08-19T05:51:42;38.77;;;24.53;;
15120;SDS011;7661;48.904;9.414;2022-08-19T05:54:10;34.93;;;22.60;;
15120;SDS011;7661;48.904;9.414;2022-08-19T05:56:38;34.87;;;25.50;;
15120;SDS011;7661;48.904;9.414;2022-08-19T05:59:06;32.53;;;23.10;;
15120;SDS011;7661;48.904;9.414;2022-08-19T06:01:34;35.50;;;23.77;;
15120;SDS011;7661;48.904;9.414;2022-08-19T06:04:02;32.80;;;22.40;;
15120;SDS011;7661;48.904;9.414;2022-08-19T06:06:30;41.93;;;25.57;;
15120;SDS011;7661;48.904;9.414;2022-08-19T06:09:00;36.07;;;24.23;;
15120;SDS011;7661;48.904;9.414;2022-08-19T06:11:32;33.23;;;22.57;;
15120;SDS011;7661;48.904;9.414;2022-08-19T06:14:02;37.60;;;22.40;;
15120;SDS011;7661;48.904;9.414;2022-08-19T06:16:30;46.17;;;22.97;;
15120;SDS011;7661;48.904;9.414;2022-08-19T06:19:00;38.33;;;24.33;;
15120;SDS011;7661;48.904;9.414;2022-08-19T06:21:29;40.73;;;24.50;;
15120;SDS011;7661;48.904;9.414;2022-08-19T06:23:57;37.60;;;24.70;;
15120;SDS011;7661;48.904;9.414;2022-08-19T06:26:27;45.23;;;25.33;;
15120;SDS011;7661;48.904;9.414;2022-08-19T06:28:53;35.97;;;22.70;;
15120;SDS011;7661;48.904;9.414;2022-08-19T06:31:22;105.97;;;26.70;;
15120;SDS011;7661;48.904;9.414;2022-08-19T06:33:51;33.17;;;22.50;;
15120;SDS011;7661;48.904;9.414;2022-08-19T06:36:19;37.13;;;24.30;;
15120;SDS011;7661;48.904;9.414;2022-08-19T06:38:47;41.53;;;24.33;;
15120;SDS011;7661;48.904;9.414;2022-08-19T06:41:14;31.87;;;23.10;;
15120;SDS011;7661;48.904;9.414;2022-08-19T06:43:42;35.30;;;23.10;;
15120;SDS011;7661;48.904;9.414;2022-08-19T06:46:10;38.13;;;24.90;;
15120;SDS011;7661;48.904;9.414;2022-08-19T06:48:38;32.27;;;22.70;;
15120;SDS011;7661;48.904;9.414;2022-08-19T06:51:06;36.77;;;23.50;;
15120;SDS011;7661;48.904;9.414;2022-08-19T06:53:33;52.03;;;23.03;;
15120;SDS011;7661;48.904;9.414;2022-08-19T06:56:00;41.80;;;22.93;;
15120;SDS011;7661;48.904;9.414;2022-08-19T06:58:28;32.53;;;23.50;;
15120;SDS011;7661;48.904;9.414;2022-08-19T07:00:59;38.43;;;24.30;;
15120;SDS011;7661;48.904;9.414;2022-08-19T07:03:28;38.40;;;24.30;;
15120;SDS011;7661;48.904;9.414;2022-08-19T07:05:57;35.60;;;24.00;;
15120;SDS011;7661;48.904;9.414;2022-08-19T07:08:28;32.93;;;22.50;;
15120;SDS011;7661;48.904;9.414;2022-08-19T07:10:55;43.00;;;25.70;;
15120;SDS011;7661;48.904;9.414;2022-08-19T07:13:22;34.80;;;24.20;;
15120;SDS011;7661;48.904;9.414;2022-08-19T07:15:50;44.37;;;24.53;;
15120;SDS011;7661;48.904;9.414;2022-08-19T07:18:19;43.97;;;23.27;;
15120;SDS011;7661;48.904;9.414;2022-08-19T07:20:46;36.17;;;23.43;;
15120;SDS011;7661;48.904;9.414;2022-08-19T07:23:14;32.87;;;23.63;;
15120;SDS011;7661;48.904;9.414;2022-08-19T07:25:40;34.80;;;22.80;;
15120;SDS011;7661;48.904;9.414;2022-08-19T07:28:08;38.90;;;24.73;;
15120;SDS011;7661;48.904;9.414;2022-08-19T07:30:38;34.73;;;24.20;;
15120;SDS011;7661;48.904;9.414;2022-08-19T07:33:05;42.50;;;26.40;;
15120;SDS011;7661;48.904;9.414;2022-08-19T07:35:34;35.23;;;24.20;;
15120;SDS011;7661;48.904;9.414;2022-08-19T07:38:00;32.73;;;23.67;;
15120;SDS011;7661;48.904;9.414;2022-08-19T07:40:28;36.00;;;23.77;;
15120;SDS011;7661;48.904;9.414;2022-08-19T07:42:56;35.03;;;24.17;;
15120;SDS011;7661;48.904;9.414;2022-08-19T07:45:23;39.07;;;24.73;;
15120;SDS011;7661;48.904;9.414;2022-08-19T07:47:50;33.47;;;23.00;;
15120;SDS011;7661;48.904;9.414;2022-08-19T07:50:18;36.20;;;24.87;;
15120;SDS011;7661;48.904;9.414;2022-08-19T07:52:48;32.97;;;22.80;;
15120;SDS011;7661;48.904;9.414;2022-08-19T07:55:16;31.20;;;21.97;;
15120;SDS011;7661;48.904;9.414;2022-08-19T07:57:44;31.60;;;21.00;;
15120;SDS011;7661;48.904;9.414;2022-08-19T08:00:11;32.33;;;22.63;;
15120;SDS011;7661;48.904;9.414;2022-08-19T08:02:39;36.67;;;21.43;;
15120;SDS011;7661;48.904;9.414;2022-08-19T08:05:07;30.70;;;21.60;;
15120;SDS011;7661;48.904;9.414;2022-08-19T08:07:54;30.27;;;21.43;;
15120;SDS011;7661;48.904;9.414;2022-08-19T08:10:38;31.93;;;22.13;;
15120;SDS011;7661;48.904;9.414;2022-08-19T08:13:05;29.80;;;20.20;;
15120;SDS011;7661;48.904;9.414;2022-08-19T08:15:32;30.83;;;20.60;;
15120;SDS011;7661;48.904;9.414;2022-08-19T08:18:02;30.70;;;20.43;;
15120;SDS011;7661;48.904;9.414;2022-08-19T08:20:29;38.03;;;22.20;;
15120;SDS011;7661;48.904;9.414;2022-08-19T08:22:57;36.77;;;22.63;;
15120;SDS011;7661;48.904;9.414;2022-08-19T08:25:41;29.03;;;20.60;;
15120;SDS011;7661;48.904;9.414;2022-08-19T08:28:08;31.10;;;20.30;;
15120;SDS011;7661;48.904;9.414;2022-08-19T08:30:35;33.43;;;21.20;;
15120;SDS011;7661;48.904;9.414;2022-08-19T08:33:06;38.10;;;20.13;;
15120;SDS011;7661;48.904;9.414;2022-08-19T08:35:33;29.70;;;20.67;;
15120;SDS011;7661;48.904;9.414;2022-08-19T08:38:02;29.20;;;19.20;;
15120;SDS011;7661;48.904;9.414;2022-08-19T08:40:32;27.87;;;19.57;;
15120;SDS011;7661;48.904;9.414;2022-08-19T08:43:06;28.50;;;19.90;;
15120;SDS011;7661;48.904;9.414;2022-08-19T08:45:37;37.53;;;20.07;;
15120;SDS011;7661;48.904;9.414;2022-08-19T08:48:15;31.70;;;20.73;;
15120;SDS011;7661;48.904;9.414;2022-08-19T08:50:46;34.43;;;20.90;;
15120;SDS011;7661;48.904;9.414;2022-08-19T08:53:18;33.03;;;18.87;;
15120;SDS011;7661;48.904;9.414;2022-08-19T08:55:46;34.10;;;21.50;;
15120;SDS011;7661;48.904;9.414;2022-08-19T08:58:14;32.20;;;21.60;;
15120;SDS011;7661;48.904;9.414;2022-08-19T09:00:48;39.87;;;20.97;;
15120;SDS011;7661;48.904;9.414;2022-08-19T09:03:16;31.90;;;21.10;;
15120;SDS011;7661;48.904;9.414;2022-08-19T09:05:48;35.90;;;20.30;;
15120;SDS011;7661;48.904;9.414;2022-08-19T09:08:28;35.30;;;22.10;;
15120;SDS011;7661;48.904;9.414;2022-08-19T09:11:06;41.00;;;20.90;;
15120;SDS011;7661;48.904;9.414;2022-08-19T09:13:36;40.10;;;22.37;;
15120;SDS011;7661;48.904;9.414;2022-08-19T09:16:12;33.23;;;21.97;;
15120;SDS011;7661;48.904;9.414;2022-08-19T09:18:43;34.80;;;22.07;;
15120;SDS011;7661;48.904;9.414;2022-08-19T09:21:12;32.33;;;23.13;;
15120;SDS011;7661;48.904;9.414;2022-08-19T09:23:40;34.27;;;22.23;;
15120;SDS011;7661;48.904;9.414;2022-08-19T09:26:09;35.17;;;22.83;;
15120;SDS011;7661;48.904;9.414;2022-08-19T09:28:38;30.77;;;23.57;;
15120;SDS011;7661;48.904;9.414;2022-08-19T09:31:08;37.53;;;21.13;;
15120;SDS011;7661;48.904;9.414;2022-08-19T09:33:35;32.90;;;22.23;;
15120;SDS011;7661;48.904;9.414;2022-08-19T09:36:05;38.03;;;23.03;;
15120;SDS011;7661;48.904;9.414;2022-08-19T09:38:34;31.60;;;21.03;;
15120;SDS011;7661;48.904;9.414;2022-08-19T09:41:06;39.10;;;22.73;;
15120;SDS011;7661;48.904;9.414;2022-08-19T09:43:34;30.73;;;20.27;;
15120;SDS011;7661;48.904;9.414;2022-08-19T09:46:02;28.90;;;20.50;;
15120;SDS011;7661;48.904;9.414;2022-08-19T09:48:31;36.17;;;21.07;;
15120;SDS011;7661;48.904;9.414;2022-08-19T09:51:02;34.87;;;21.23;;
15120;SDS011;7661;48.904;9.414;2022-08-19T09:53:30;29.80;;;20.83;;
15120;SDS011;7661;48.904;9.414;2022-08-19T09:55:57;34.30;;;22.27;;
15120;SDS011;7661;48.904;9.414;2022-08-19T09:58:25;32.20;;;22.07;;
15120;SDS011;7661;48.904;9.414;2022-08-19T10:00:53;31.20;;;22.50;;
15120;SDS011;7661;48.904;9.414;2022-08-19T10:03:20;32.83;;;22.27;;
15120;SDS011;7661;48.904;9.414;2022-08-19T10:05:47;34.77;;;21.20;;
15120;SDS011;7661;48.904;9.414;2022-08-19T10:08:13;34.33;;;22.67;;
15120;SDS011;7661;48.904;9.414;2022-08-19T10:10:40;33.23;;;23.47;;
15120;SDS011;7661;48.904;9.414;2022-08-19T10:13:08;32.00;;;22.50;;
15120;SDS011;7661;48.904;9.414;2022-08-19T10:15:37;31.77;;;21.60;;
15120;SDS011;7661;48.904;9.414;2022-08-19T10:18:05;34.10;;;21.53;;
15120;SDS011;7661;48.904;9.414;2022-08-19T10:20:33;35.77;;;22.40;;
15120;SDS011;7661;48.904;9.414;2022-08-19T10:23:00;34.40;;;22.07;;
15120;SDS011;7661;48.904;9.414;2022-08-19T10:25:28;29.87;;;21.60;;
15120;SDS011;7661;48.904;9.414;2022-08-19T10:27:54;37.40;;;23.27;;
15120;SDS011;7661;48.904;9.414;2022-08-19T10:30:21;39.90;;;23.17;;
15120;SDS011;7661;48.904;9.414;2022-08-19T10:32:50;33.37;;;21.13;;
15120;SDS011;7661;48.904;9.414;2022-08-19T10:35:16;30.37;;;21.80;;
15120;SDS011;7661;48.904;9.414;2022-08-19T10:37:43;31.93;;;21.80;;
15120;SDS011;7661;48.904;9.414;2022-08-19T10:40:10;30.53;;;21.87;;
15120;SDS011;7661;48.904;9.414;2022-08-19T10:42:38;35.27;;;21.50;;
15120;SDS011;7661;48.904;9.414;2022-08-19T10:45:05;28.43;;;20.67;;
15120;SDS011;7661;48.904;9.414;2022-08-19T10:47:34;29.53;;;20.10;;
15120;SDS011;7661;48.904;9.414;2022-08-19T10:50:03;33.80;;;22.63;;
15120;SDS011;7661;48.904;9.414;2022-08-19T10:52:50;35.27;;;23.60;;
15120;SDS011;7661;48.904;9.414;2022-08-19T10:55:18;35.00;;;23.30;;
15120;SDS011;7661;48.904;9.414;2022-08-19T10:58:08;33.10;;;24.37;;
15120;SDS011;7661;48.904;9.414;2022-08-19T11:00:37;35.97;;;24.20;;
15120;SDS011;7661;48.904;9.414;2022-08-19T11:03:05;35.23;;;24.43;;
15120;SDS011;7661;48.904;9.414;2022-08-19T11:05:33;36.90;;;24.63;;
15120;SDS011;7661;48.904;9.414;2022-08-19T11:08:02;34.33;;;25.17;;
15120;SDS011;7661;48.904;9.414;2022-08-19T11:10:30;35.27;;;24.57;;
15120;SDS011;7661;48.904;9.414;2022-08-19T11:12:57;37.03;;;24.27;;
15120;SDS011;7661;48.904;9.414;2022-08-19T11:15:25;37.63;;;25.90;;
15120;SDS011;7661;48.904;9.414;2022-08-19T11:17:53;34.33;;;24.83;;
15120;SDS011;7661;48.904;9.414;2022-08-19T11:20:20;44.43;;;26.57;;
15120;SDS011;7661;48.904;9.414;2022-08-19T11:22:50;44.50;;;24.33;;
15120;SDS011;7661;48.904;9.414;2022-08-19T11:25:18;37.47;;;25.57;;
15120;SDS011;7661;48.904;9.414;2022-08-19T11:27:45;38.33;;;25.33;;
15120;SDS011;7661;48.904;9.414;2022-08-19T11:30:16;37.37;;;24.93;;
15120;SDS011;7661;48.904;9.414;2022-08-19T11:32:43;40.30;;;25.03;;
15120;SDS011;7661;48.904;9.414;2022-08-19T11:35:11;37.57;;;24.43;;
15120;SDS011;7661;48.904;9.414;2022-08-19T11:37:38;39.17;;;24.73;;
15120;SDS011;7661;48.904;9.414;2022-08-19T11:40:07;38.70;;;27.00;;
15120;SDS011;7661;48.904;9.414;2022-08-19T11:42:35;38.50;;;26.27;;
15120;SDS011;7661;48.904;9.414;2022-08-19T11:45:19;38.70;;;26.37;;
15120;SDS011;7661;48.904;9.414;2022-08-19T11:47:47;38.43;;;27.03;;
15120;SDS011;7661;48.904;9.414;2022-08-19T11:50:14;37.87;;;26.83;;
15120;SDS011;7661;48.904;9.414;2022-08-19T11:52:41;39.30;;;27.40;;
15120;SDS011;7661;48.904;9.414;2022-08-19T11:55:10;39.77;;;27.03;;
15120;SDS011;7661;48.904;9.414;2022-08-19T11:57:37;39.33;;;27.43;;
15120;SDS011;7661;48.904;9.414;2022-08-19T12:00:06;43.00;;;26.60;;
15120;SDS011;7661;48.904;9.414;2022-08-19T12:02:34;34.40;;;26.23;;
15120;SDS011;7661;48.904;9.414;2022-08-19T12:05:01;36.87;;;26.93;;
15120;SDS011;7661;48.904;9.414;2022-08-19T12:07:28;41.10;;;25.70;;
15120;SDS011;7661;48.904;9.414;2022-08-19T12:09:58;39.40;;;25.67;;
15120;SDS011;7661;48.904;9.414;2022-08-19T12:12:26;36.63;;;25.17;;
15120;SDS011;7661;48.904;9.414;2022-08-19T12:14:53;39.20;;;25.80;;
15120;SDS011;7661;48.904;9.414;2022-08-19T12:17:23;37.03;;;24.63;;
15120;SDS011;7661;48.904;9.414;2022-08-19T12:19:51;31.17;;;23.70;;
15120;SDS011;7661;48.904;9.414;2022-08-19T12:22:18;35.30;;;25.40;;
15120;SDS011;7661;48.904;9.414;2022-08-19T12:24:45;40.70;;;23.73;;
15120;SDS011;7661;48.904;9.414;2022-08-19T12:27:13;33.53;;;23.93;;
15120;SDS011;7661;48.904;9.414;2022-08-19T12:29:41;33.23;;;24.13;;
15120;SDS011;7661;48.904;9.414;2022-08-19T12:32:08;37.33;;;24.63;;
15120;SDS011;7661;48.904;9.414;2022-08-19T12:34:35;30.60;;;23.50;;
15120;SDS011;7661;48.904;9.414;2022-08-19T12:37:03;32.43;;;24.70;;
15120;SDS011;7661;48.904;9.414;2022-08-19T12:39:33;30.50;;;22.97;;
15120;SDS011;7661;48.904;9.414;2022-08-19T12:42:02;33.83;;;24.67;;
15120;SDS011;7661;48.904;9.414;2022-08-19T12:44:29;38.73;;;23.70;;
15120;SDS011;7661;48.904;9.414;2022-08-19T12:46:58;38.97;;;25.40;;
15120;SDS011;7661;48.904;9.414;2022-08-19T12:49:26;34.50;;;24.47;;
15120;SDS011;7661;48.904;9.414;2022-08-19T12:51:56;33.47;;;23.27;;
15120;SDS011;7661;48.904;9.414;2022-08-19T12:54:23;33.03;;;22.03;;
15120;SDS011;7661;48.904;9.414;2022-08-19T12:56:50;29.23;;;23.10;;
15120;SDS011;7661;48.904;9.414;2022-08-19T12:59:17;33.30;;;23.60;;
15120;SDS011;7661;48.904;9.414;2022-08-19T13:01:45;35.07;;;22.00;;
15120;SDS011;7661;48.904;9.414;2022-08-19T13:04:13;32.23;;;22.60;;
15120;SDS011;7661;48.904;9.414;2022-08-19T13:06:40;30.60;;;20.33;;
15120;SDS011;7661;48.904;9.414;2022-08-19T13:09:07;30.77;;;19.03;;
15120;SDS011;7661;48.904;9.414;2022-08-19T13:11:34;29.97;;;20.70;;
15120;SDS011;7661;48.904;9.414;2022-08-19T13:14:03;32.43;;;20.87;;
15120;SDS011;7661;48.904;9.414;2022-08-19T13:16:30;28.77;;;20.47;;
15120;SDS011;7661;48.904;9.414;2022-08-19T13:18:57;31.27;;;21.70;;
15120;SDS011;7661;48.904;9.414;2022-08-19T13:21:26;29.23;;;21.50;;
15120;SDS011;7661;48.904;9.414;2022-08-19T13:23:55;28.03;;;21.13;;
15120;SDS011;7661;48.904;9.414;2022-08-19T13:26:21;33.00;;;20.67;;
15120;SDS011;7661;48.904;9.414;2022-08-19T13:28:49;33.57;;;20.80;;
15120;SDS011;7661;48.904;9.414;2022-08-19T13:31:34;31.70;;;21.20;;
15120;SDS011;7661;48.904;9.414;2022-08-19T13:34:25;32.80;;;21.17;;
15120;SDS011;7661;48.904;9.414;2022-08-19T13:36:55;30.13;;;20.97;;
15120;SDS011;7661;48.904;9.414;2022-08-19T13:39:22;31.23;;;21.40;;
15120;SDS011;7661;48.904;9.414;2022-08-19T13:41:49;28.97;;;21.20;;
15120;SDS011;7661;48.904;9.414;2022-08-19T13:44:16;35.80;;;21.13;;
15120;SDS011;7661;48.904;9.414;2022-08-19T13:46:44;32.60;;;23.00;;
15120;SDS011;7661;48.904;9.414;2022-08-19T13:49:12;29.20;;;21.47;;
15120;SDS011;7661;48.904;9.414;2022-08-19T13:51:40;32.43;;;23.07;;
15120;SDS011;7661;48.904;9.414;2022-08-19T13:54:09;31.93;;;22.90;;
15120;SDS011;7661;48.904;9.414;2022-08-19T13:56:39;37.10;;;23.10;;
15120;SDS011;7661;48.904;9.414;2022-08-19T13:59:07;34.10;;;23.33;;
15120;SDS011;7661;48.904;9.414;2022-08-19T14:01:34;40.33;;;23.07;;
15120;SDS011;7661;48.904;9.414;2022-08-19T14:04:02;29.50;;;21.40;;
15120;SDS011;7661;48.904;9.414;2022-08-19T14:06:30;29.20;;;20.10;;
15120;SDS011;7661;48.904;9.414;2022-08-19T14:08:58;30.40;;;20.37;;
15120;SDS011;7661;48.904;9.414;2022-08-19T14:11:28;30.23;;;21.03;;
15120;SDS011;7661;48.904;9.414;2022-08-19T14:13:55;31.43;;;20.17;;
15120;SDS011;7661;48.904;9.414;2022-08-19T14:16:22;28.13;;;21.07;;
15120;SDS011;7661;48.904;9.414;2022-08-19T14:18:49;32.53;;;22.33;;
15120;SDS011;7661;48.904;9.414;2022-08-19T14:21:17;29.80;;;20.87;;
15120;SDS011;7661;48.904;9.414;2022-08-19T14:23:47;28.77;;;21.00;;
15120;SDS011;7661;48.904;9.414;2022-08-19T14:26:15;27.90;;;21.00;;
15120;SDS011;7661;48.904;9.414;2022-08-19T14:28:45;30.87;;;21.63;;
15120;SDS011;7661;48.904;9.414;2022-08-19T14:31:13;27.93;;;20.70;;
15120;SDS011;7661;48.904;9.414;2022-08-19T14:33:43;27.63;;;20.80;;
15120;SDS011;7661;48.904;9.414;2022-08-19T14:36:11;37.13;;;21.43;;
15120;SDS011;7661;48.904;9.414;2022-08-19T14:38:38;34.90;;;23.10;;
15120;SDS011;7661;48.904;9.414;2022-08-19T14:41:06;38.60;;;24.57;;
15120;SDS011;7661;48.904;9.414;2022-08-19T14:43:35;41.07;;;24.57;;